sensor_id;sensor_type;location;lat;lon;timestamp;P1;durP1;ratioP1;P2;durP2;ratioP2
20271;SDS011;10295;49.812;9.866;2022-12-07T00:01:12;30.07;;;13.37;;
20271;SDS011;10295;49.812;9.866;2022-12-07T00:03:40;30.03;;;13.03;;
20271;SDS011;10295;49.812;9.866;2022-12-07T00:06:08;26.57;;;12.87;;
20271;SDS011;10295;49.812;9.866;2022-12-07T00:08:36;24.87;;;12.43;;
20271;SDS011;10295;49.812;9.866;2022-12-07T00:11:08;25.70;;;12.93;;
20271;SDS011;10295;49.812;9.866;2022-12-07T00:13:35;27.33;;;12.37;;
20271;SDS011;10295;49.812;9.866;2022-12-07T00:16:03;27.10;;;12.97;;
20271;SDS011;10295;49.812;9.866;2022-12-07T00:18:31;29.33;;;13.00;;
20271;SDS011;10295;49.812;9.866;2022-12-07T00:21:15;24.13;;;11.97;;
20271;SDS011;10295;49.812;9.866;2022-12-07T00:23:43;25.83;;;12.07;;
20271;SDS011;10295;49.812;9.866;2022-12-07T00:26:17;25.23;;;12.27;;
20271;SDS011;10295;49.812;9.866;2022-12-07T00:28:48;24.37;;;11.90;;
20271;SDS011;10295;49.812;9.866;2022-12-07T00:31:16;25.13;;;12.73;;
20271;SDS011;10295;49.812;9.866;2022-12-07T00:33:44;22.83;;;11.67;;
20271;SDS011;10295;49.812;9.866;2022-12-07T00:36:13;24.80;;;11.57;;
20271;SDS011;10295;49.812;9.866;2022-12-07T00:38:40;28.30;;;13.17;;
20271;SDS011;10295;49.812;9.866;2022-12-07T00:41:11;25.20;;;12.33;;
20271;SDS011;10295;49.812;9.866;2022-12-07T00:43:39;26.23;;;12.50;;
20271;SDS011;10295;49.812;9.866;2022-12-07T00:46:07;28.00;;;12.60;;
20271;SDS011;10295;49.812;9.866;2022-12-07T00:48:34;23.60;;;11.50;;
20271;SDS011;10295;49.812;9.866;2022-12-07T00:51:02;23.43;;;11.90;;
20271;SDS011;10295;49.812;9.866;2022-12-07T00:53:30;28.30;;;12.47;;
20271;SDS011;10295;49.812;9.866;2022-12-07T00:56:11;24.90;;;11.63;;
20271;SDS011;10295;49.812;9.866;2022-12-07T00:58:38;26.13;;;12.00;;
20271;SDS011;10295;49.812;9.866;2022-12-07T01:01:06;25.87;;;12.00;;
20271;SDS011;10295;49.812;9.866;2022-12-07T01:03:34;23.77;;;12.07;;
20271;SDS011;10295;49.812;9.866;2022-12-07T01:06:01;23.70;;;12.17;;
20271;SDS011;10295;49.812;9.866;2022-12-07T01:08:29;24.90;;;11.90;;
20271;SDS011;10295;49.812;9.866;2022-12-07T01:11:03;24.87;;;11.93;;
20271;SDS011;10295;49.812;9.866;2022-12-07T01:13:32;25.57;;;12.13;;
20271;SDS011;10295;49.812;9.866;2022-12-07T01:16:00;25.43;;;12.13;;
20271;SDS011;10295;49.812;9.866;2022-12-07T01:18:28;25.27;;;12.60;;
20271;SDS011;10295;49.812;9.866;2022-12-07T01:20:59;25.63;;;11.87;;
20271;SDS011;10295;49.812;9.866;2022-12-07T01:23:26;24.93;;;12.37;;
20271;SDS011;10295;49.812;9.866;2022-12-07T01:25:57;25.10;;;11.80;;
20271;SDS011;10295;49.812;9.866;2022-12-07T01:28:24;23.97;;;11.47;;
20271;SDS011;10295;49.812;9.866;2022-12-07T01:30:58;27.87;;;12.13;;
20271;SDS011;10295;49.812;9.866;2022-12-07T01:33:27;24.80;;;12.13;;
20271;SDS011;10295;49.812;9.866;2022-12-07T01:35:59;29.27;;;12.20;;
20271;SDS011;10295;49.812;9.866;2022-12-07T01:38:27;22.73;;;10.87;;
20271;SDS011;10295;49.812;9.866;2022-12-07T01:40:55;24.53;;;11.43;;
20271;SDS011;10295;49.812;9.866;2022-12-07T01:43:22;24.10;;;11.43;;
20271;SDS011;10295;49.812;9.866;2022-12-07T01:45:50;23.53;;;11.30;;
20271;SDS011;10295;49.812;9.866;2022-12-07T01:48:18;26.00;;;12.40;;
20271;SDS011;10295;49.812;9.866;2022-12-07T01:50:47;25.27;;;11.07;;
20271;SDS011;10295;49.812;9.866;2022-12-07T01:53:15;24.63;;;11.30;;
20271;SDS011;10295;49.812;9.866;2022-12-07T01:55:44;23.03;;;11.33;;
20271;SDS011;10295;49.812;9.866;2022-12-07T01:58:12;24.40;;;11.77;;
20271;SDS011;10295;49.812;9.866;2022-12-07T02:00:39;24.60;;;11.83;;
20271;SDS011;10295;49.812;9.866;2022-12-07T02:03:15;23.00;;;11.60;;
20271;SDS011;10295;49.812;9.866;2022-12-07T02:05:43;24.67;;;11.40;;
20271;SDS011;10295;49.812;9.866;2022-12-07T02:11:40;25.20;;;11.83;;
20271;SDS011;10295;49.812;9.866;2022-12-07T02:14:07;25.13;;;11.73;;
20271;SDS011;10295;49.812;9.866;2022-12-07T02:16:41;23.60;;;11.23;;
20271;SDS011;10295;49.812;9.866;2022-12-07T02:21:51;24.20;;;12.13;;
20271;SDS011;10295;49.812;9.866;2022-12-07T02:27:06;25.03;;;12.40;;
20271;SDS011;10295;49.812;9.866;2022-12-07T02:35:35;24.43;;;11.80;;
20271;SDS011;10295;49.812;9.866;2022-12-07T02:37:43;29.10;;;14.13;;
20271;SDS011;10295;49.812;9.866;2022-12-07T02:42:45;26.77;;;13.20;;
20271;SDS011;10295;49.812;9.866;2022-12-07T02:45:15;28.00;;;13.87;;
20271;SDS011;10295;49.812;9.866;2022-12-07T02:47:44;27.33;;;12.67;;
20271;SDS011;10295;49.812;9.866;2022-12-07T02:50:12;30.13;;;12.97;;
20271;SDS011;10295;49.812;9.866;2022-12-07T02:52:39;27.13;;;13.07;;
20271;SDS011;10295;49.812;9.866;2022-12-07T02:55:06;28.33;;;12.87;;
20271;SDS011;10295;49.812;9.866;2022-12-07T02:58:18;27.13;;;13.13;;
20271;SDS011;10295;49.812;9.866;2022-12-07T03:00:25;27.73;;;13.00;;
20271;SDS011;10295;49.812;9.866;2022-12-07T03:03:03;29.43;;;13.67;;
20271;SDS011;10295;49.812;9.866;2022-12-07T03:10:59;26.40;;;12.93;;
20271;SDS011;10295;49.812;9.866;2022-12-07T03:18:28;28.43;;;13.83;;
20271;SDS011;10295;49.812;9.866;2022-12-07T03:20:58;28.73;;;13.90;;
20271;SDS011;10295;49.812;9.866;2022-12-07T03:23:28;31.63;;;14.83;;
20271;SDS011;10295;49.812;9.866;2022-12-07T03:25:57;30.23;;;14.13;;
20271;SDS011;10295;49.812;9.866;2022-12-07T03:28:27;27.97;;;12.83;;
20271;SDS011;10295;49.812;9.866;2022-12-07T03:30:56;29.77;;;13.87;;
20271;SDS011;10295;49.812;9.866;2022-12-07T03:33:27;30.40;;;13.40;;
20271;SDS011;10295;49.812;9.866;2022-12-07T03:36:01;29.43;;;13.73;;
20271;SDS011;10295;49.812;9.866;2022-12-07T03:39:08;30.90;;;14.07;;
20271;SDS011;10295;49.812;9.866;2022-12-07T03:41:25;27.80;;;13.13;;
20271;SDS011;10295;49.812;9.866;2022-12-07T03:43:53;28.07;;;13.17;;
20271;SDS011;10295;49.812;9.866;2022-12-07T03:46:31;30.43;;;14.87;;
20271;SDS011;10295;49.812;9.866;2022-12-07T03:49:04;28.90;;;13.17;;
20271;SDS011;10295;49.812;9.866;2022-12-07T03:51:45;30.47;;;13.83;;
20271;SDS011;10295;49.812;9.866;2022-12-07T03:54:15;27.80;;;13.67;;
20271;SDS011;10295;49.812;9.866;2022-12-07T03:56:44;30.60;;;13.63;;
20271;SDS011;10295;49.812;9.866;2022-12-07T03:59:12;27.93;;;13.67;;
20271;SDS011;10295;49.812;9.866;2022-12-07T04:01:41;32.00;;;14.40;;
20271;SDS011;10295;49.812;9.866;2022-12-07T04:04:09;27.20;;;13.67;;
20271;SDS011;10295;49.812;9.866;2022-12-07T04:06:36;28.90;;;13.77;;
20271;SDS011;10295;49.812;9.866;2022-12-07T04:09:03;29.23;;;13.27;;
20271;SDS011;10295;49.812;9.866;2022-12-07T04:11:30;30.57;;;14.17;;
20271;SDS011;10295;49.812;9.866;2022-12-07T04:13:57;29.03;;;14.07;;
20271;SDS011;10295;49.812;9.866;2022-12-07T04:16:47;31.10;;;14.20;;
20271;SDS011;10295;49.812;9.866;2022-12-07T04:19:15;29.90;;;13.53;;
20271;SDS011;10295;49.812;9.866;2022-12-07T04:21:42;29.83;;;13.73;;
20271;SDS011;10295;49.812;9.866;2022-12-07T04:24:11;31.13;;;13.93;;
20271;SDS011;10295;49.812;9.866;2022-12-07T04:26:38;31.03;;;14.63;;
20271;SDS011;10295;49.812;9.866;2022-12-07T04:29:05;28.37;;;13.37;;
20271;SDS011;10295;49.812;9.866;2022-12-07T04:31:33;28.97;;;13.83;;
20271;SDS011;10295;49.812;9.866;2022-12-07T04:34:00;27.80;;;13.10;;
20271;SDS011;10295;49.812;9.866;2022-12-07T04:36:28;27.73;;;13.67;;
20271;SDS011;10295;49.812;9.866;2022-12-07T04:38:55;27.20;;;13.23;;
20271;SDS011;10295;49.812;9.866;2022-12-07T04:41:23;25.60;;;13.17;;
20271;SDS011;10295;49.812;9.866;2022-12-07T04:43:56;27.50;;;13.17;;
20271;SDS011;10295;49.812;9.866;2022-12-07T04:46:24;26.07;;;12.57;;
20271;SDS011;10295;49.812;9.866;2022-12-07T04:48:52;30.17;;;12.60;;
20271;SDS011;10295;49.812;9.866;2022-12-07T04:51:20;29.37;;;12.47;;
20271;SDS011;10295;49.812;9.866;2022-12-07T04:53:48;28.53;;;13.53;;
20271;SDS011;10295;49.812;9.866;2022-12-07T04:56:15;26.57;;;12.90;;
20271;SDS011;10295;49.812;9.866;2022-12-07T04:58:43;29.80;;;13.30;;
20271;SDS011;10295;49.812;9.866;2022-12-07T05:01:10;28.00;;;12.70;;
20271;SDS011;10295;49.812;9.866;2022-12-07T05:03:38;24.93;;;12.37;;
20271;SDS011;10295;49.812;9.866;2022-12-07T05:06:06;28.83;;;12.73;;
20271;SDS011;10295;49.812;9.866;2022-12-07T05:08:38;23.17;;;11.57;;
20271;SDS011;10295;49.812;9.866;2022-12-07T05:11:06;28.40;;;11.77;;
20271;SDS011;10295;49.812;9.866;2022-12-07T05:13:33;24.20;;;11.73;;
20271;SDS011;10295;49.812;9.866;2022-12-07T05:16:00;23.57;;;11.07;;
20271;SDS011;10295;49.812;9.866;2022-12-07T05:18:28;23.60;;;10.87;;
20271;SDS011;10295;49.812;9.866;2022-12-07T05:20:55;24.63;;;10.83;;
20271;SDS011;10295;49.812;9.866;2022-12-07T05:23:22;23.50;;;10.77;;
20271;SDS011;10295;49.812;9.866;2022-12-07T05:25:49;21.50;;;10.03;;
20271;SDS011;10295;49.812;9.866;2022-12-07T05:28:16;23.07;;;10.70;;
20271;SDS011;10295;49.812;9.866;2022-12-07T05:30:43;23.10;;;11.00;;
20271;SDS011;10295;49.812;9.866;2022-12-07T05:33:10;24.97;;;10.97;;
20271;SDS011;10295;49.812;9.866;2022-12-07T05:35:38;19.93;;;9.77;;
20271;SDS011;10295;49.812;9.866;2022-12-07T05:38:05;21.50;;;10.33;;
20271;SDS011;10295;49.812;9.866;2022-12-07T05:40:32;24.90;;;11.23;;
20271;SDS011;10295;49.812;9.866;2022-12-07T05:42:59;23.33;;;10.80;;
20271;SDS011;10295;49.812;9.866;2022-12-07T05:45:30;23.13;;;10.43;;
20271;SDS011;10295;49.812;9.866;2022-12-07T05:47:57;23.13;;;10.37;;
20271;SDS011;10295;49.812;9.866;2022-12-07T05:50:24;22.57;;;10.63;;
20271;SDS011;10295;49.812;9.866;2022-12-07T05:52:51;23.10;;;11.30;;
20271;SDS011;10295;49.812;9.866;2022-12-07T05:55:19;25.27;;;12.00;;
20271;SDS011;10295;49.812;9.866;2022-12-07T05:57:46;25.43;;;12.60;;
20271;SDS011;10295;49.812;9.866;2022-12-07T06:00:31;25.00;;;11.17;;
20271;SDS011;10295;49.812;9.866;2022-12-07T06:02:59;23.50;;;11.50;;
20271;SDS011;10295;49.812;9.866;2022-12-07T06:05:26;26.33;;;11.60;;
20271;SDS011;10295;49.812;9.866;2022-12-07T06:07:53;25.00;;;11.70;;
20271;SDS011;10295;49.812;9.866;2022-12-07T06:10:20;26.40;;;12.10;;
20271;SDS011;10295;49.812;9.866;2022-12-07T06:12:47;27.33;;;13.07;;
20271;SDS011;10295;49.812;9.866;2022-12-07T06:15:14;28.27;;;12.97;;
20271;SDS011;10295;49.812;9.866;2022-12-07T06:17:42;28.20;;;12.67;;
20271;SDS011;10295;49.812;9.866;2022-12-07T06:20:09;27.70;;;13.03;;
20271;SDS011;10295;49.812;9.866;2022-12-07T06:22:36;27.13;;;12.77;;
20271;SDS011;10295;49.812;9.866;2022-12-07T06:25:03;28.50;;;13.07;;
20271;SDS011;10295;49.812;9.866;2022-12-07T06:27:34;29.83;;;13.83;;
20271;SDS011;10295;49.812;9.866;2022-12-07T06:30:01;28.67;;;13.17;;
20271;SDS011;10295;49.812;9.866;2022-12-07T06:32:32;27.90;;;13.00;;
20271;SDS011;10295;49.812;9.866;2022-12-07T06:35:00;27.57;;;13.07;;
20271;SDS011;10295;49.812;9.866;2022-12-07T06:37:27;27.13;;;12.87;;
20271;SDS011;10295;49.812;9.866;2022-12-07T06:39:54;29.00;;;12.80;;
20271;SDS011;10295;49.812;9.866;2022-12-07T06:42:21;28.57;;;13.30;;
20271;SDS011;10295;49.812;9.866;2022-12-07T06:44:49;30.10;;;14.60;;
20271;SDS011;10295;49.812;9.866;2022-12-07T06:47:16;26.30;;;12.00;;
20271;SDS011;10295;49.812;9.866;2022-12-07T06:50:03;24.53;;;11.63;;
20271;SDS011;10295;49.812;9.866;2022-12-07T06:52:32;24.97;;;11.07;;
20271;SDS011;10295;49.812;9.866;2022-12-07T06:54:59;25.57;;;11.37;;
20271;SDS011;10295;49.812;9.866;2022-12-07T06:57:26;24.73;;;12.03;;
20271;SDS011;10295;49.812;9.866;2022-12-07T06:59:53;26.63;;;12.13;;
20271;SDS011;10295;49.812;9.866;2022-12-07T07:02:20;27.30;;;11.80;;
20271;SDS011;10295;49.812;9.866;2022-12-07T07:04:47;25.13;;;11.57;;
20271;SDS011;10295;49.812;9.866;2022-12-07T07:07:14;24.90;;;11.60;;
20271;SDS011;10295;49.812;9.866;2022-12-07T07:09:42;24.37;;;11.47;;
20271;SDS011;10295;49.812;9.866;2022-12-07T07:12:09;29.60;;;12.07;;
20271;SDS011;10295;49.812;9.866;2022-12-07T07:14:36;26.27;;;11.17;;
20271;SDS011;10295;49.812;9.866;2022-12-07T07:17:03;22.70;;;10.37;;
20271;SDS011;10295;49.812;9.866;2022-12-07T07:19:30;25.37;;;11.73;;
20271;SDS011;10295;49.812;9.866;2022-12-07T07:21:57;25.27;;;10.70;;
20271;SDS011;10295;49.812;9.866;2022-12-07T07:24:24;24.07;;;10.67;;
20271;SDS011;10295;49.812;9.866;2022-12-07T07:26:52;23.50;;;10.93;;
20271;SDS011;10295;49.812;9.866;2022-12-07T07:29:19;22.60;;;10.17;;
20271;SDS011;10295;49.812;9.866;2022-12-07T07:31:46;24.43;;;10.57;;
20271;SDS011;10295;49.812;9.866;2022-12-07T07:34:13;26.43;;;10.50;;
20271;SDS011;10295;49.812;9.866;2022-12-07T07:36:40;23.67;;;10.70;;
20271;SDS011;10295;49.812;9.866;2022-12-07T07:39:07;20.70;;;9.87;;
20271;SDS011;10295;49.812;9.866;2022-12-07T07:41:34;21.40;;;9.53;;
20271;SDS011;10295;49.812;9.866;2022-12-07T07:44:01;25.00;;;10.37;;
20271;SDS011;10295;49.812;9.866;2022-12-07T07:46:29;23.13;;;10.33;;
20271;SDS011;10295;49.812;9.866;2022-12-07T07:48:56;21.50;;;10.20;;
20271;SDS011;10295;49.812;9.866;2022-12-07T07:51:23;20.50;;;9.40;;
20271;SDS011;10295;49.812;9.866;2022-12-07T07:53:51;21.20;;;9.80;;
20271;SDS011;10295;49.812;9.866;2022-12-07T07:56:18;20.60;;;9.67;;
20271;SDS011;10295;49.812;9.866;2022-12-07T07:58:45;20.53;;;9.27;;
20271;SDS011;10295;49.812;9.866;2022-12-07T08:01:12;21.10;;;9.47;;
20271;SDS011;10295;49.812;9.866;2022-12-07T08:03:39;23.63;;;10.53;;
20271;SDS011;10295;49.812;9.866;2022-12-07T08:06:07;21.70;;;9.73;;
20271;SDS011;10295;49.812;9.866;2022-12-07T08:08:34;20.60;;;9.70;;
20271;SDS011;10295;49.812;9.866;2022-12-07T08:11:04;20.23;;;9.33;;
20271;SDS011;10295;49.812;9.866;2022-12-07T08:13:31;22.73;;;10.33;;
20271;SDS011;10295;49.812;9.866;2022-12-07T08:15:58;23.60;;;10.57;;
20271;SDS011;10295;49.812;9.866;2022-12-07T08:18:29;22.17;;;10.10;;
20271;SDS011;10295;49.812;9.866;2022-12-07T08:21:00;21.50;;;9.67;;
20271;SDS011;10295;49.812;9.866;2022-12-07T08:23:27;21.40;;;9.23;;
20271;SDS011;10295;49.812;9.866;2022-12-07T08:26:05;20.53;;;10.53;;
20271;SDS011;10295;49.812;9.866;2022-12-07T08:28:33;19.73;;;9.83;;
20271;SDS011;10295;49.812;9.866;2022-12-07T08:31:00;19.70;;;9.57;;
20271;SDS011;10295;49.812;9.866;2022-12-07T08:33:27;20.70;;;10.13;;
20271;SDS011;10295;49.812;9.866;2022-12-07T08:36:00;22.47;;;10.03;;
20271;SDS011;10295;49.812;9.866;2022-12-07T08:38:27;21.77;;;10.53;;
20271;SDS011;10295;49.812;9.866;2022-12-07T08:40:57;21.20;;;10.30;;
20271;SDS011;10295;49.812;9.866;2022-12-07T08:43:25;20.53;;;9.20;;
20271;SDS011;10295;49.812;9.866;2022-12-07T08:46:01;21.03;;;10.63;;
20271;SDS011;10295;49.812;9.866;2022-12-07T08:48:31;22.90;;;10.50;;
20271;SDS011;10295;49.812;9.866;2022-12-07T08:50:58;19.60;;;9.83;;
20271;SDS011;10295;49.812;9.866;2022-12-07T08:53:28;20.63;;;10.07;;
20271;SDS011;10295;49.812;9.866;2022-12-07T08:55:55;23.27;;;10.00;;
20271;SDS011;10295;49.812;9.866;2022-12-07T08:58:24;20.50;;;10.50;;
20271;SDS011;10295;49.812;9.866;2022-12-07T09:00:51;20.77;;;10.00;;
20271;SDS011;10295;49.812;9.866;2022-12-07T09:03:18;26.33;;;9.90;;
20271;SDS011;10295;49.812;9.866;2022-12-07T09:05:45;20.77;;;9.87;;
20271;SDS011;10295;49.812;9.866;2022-12-07T09:08:12;22.60;;;9.47;;
20271;SDS011;10295;49.812;9.866;2022-12-07T09:10:40;18.53;;;9.60;;
20271;SDS011;10295;49.812;9.866;2022-12-07T09:13:07;22.33;;;10.03;;
20271;SDS011;10295;49.812;9.866;2022-12-07T09:15:34;19.97;;;9.53;;
20271;SDS011;10295;49.812;9.866;2022-12-07T09:18:01;19.30;;;9.13;;
20271;SDS011;10295;49.812;9.866;2022-12-07T09:20:28;20.20;;;9.43;;
20271;SDS011;10295;49.812;9.866;2022-12-07T09:22:55;19.83;;;9.50;;
20271;SDS011;10295;49.812;9.866;2022-12-07T09:25:22;22.43;;;10.33;;
20271;SDS011;10295;49.812;9.866;2022-12-07T09:27:56;20.80;;;9.83;;
20271;SDS011;10295;49.812;9.866;2022-12-07T09:30:24;18.73;;;9.00;;
20271;SDS011;10295;49.812;9.866;2022-12-07T09:32:55;18.57;;;9.00;;
20271;SDS011;10295;49.812;9.866;2022-12-07T09:35:23;18.50;;;9.13;;
20271;SDS011;10295;49.812;9.866;2022-12-07T09:37:50;21.47;;;10.07;;
20271;SDS011;10295;49.812;9.866;2022-12-07T09:40:18;20.43;;;10.27;;
20271;SDS011;10295;49.812;9.866;2022-12-07T09:42:53;17.50;;;8.03;;
20271;SDS011;10295;49.812;9.866;2022-12-07T09:45:32;15.97;;;8.03;;
20271;SDS011;10295;49.812;9.866;2022-12-07T09:48:01;17.43;;;8.70;;
20271;SDS011;10295;49.812;9.866;2022-12-07T09:50:29;17.77;;;7.60;;
20271;SDS011;10295;49.812;9.866;2022-12-07T09:53:08;19.43;;;8.37;;
20271;SDS011;10295;49.812;9.866;2022-12-07T09:55:36;15.17;;;7.83;;
20271;SDS011;10295;49.812;9.866;2022-12-07T09:58:03;14.80;;;7.60;;
20271;SDS011;10295;49.812;9.866;2022-12-07T10:00:30;15.10;;;6.77;;
20271;SDS011;10295;49.812;9.866;2022-12-07T10:05:29;16.80;;;7.30;;
20271;SDS011;10295;49.812;9.866;2022-12-07T10:07:57;16.77;;;7.87;;
20271;SDS011;10295;49.812;9.866;2022-12-07T10:10:25;16.10;;;7.03;;
20271;SDS011;10295;49.812;9.866;2022-12-07T10:13:00;15.47;;;7.27;;
20271;SDS011;10295;49.812;9.866;2022-12-07T10:18:30;15.87;;;7.47;;
20271;SDS011;10295;49.812;9.866;2022-12-07T10:23:58;14.93;;;6.97;;
20271;SDS011;10295;49.812;9.866;2022-12-07T10:26:28;14.20;;;6.87;;
20271;SDS011;10295;49.812;9.866;2022-12-07T10:28:56;14.27;;;6.47;;
20271;SDS011;10295;49.812;9.866;2022-12-07T10:31:25;14.50;;;6.83;;
20271;SDS011;10295;49.812;9.866;2022-12-07T10:33:59;13.73;;;6.63;;
20271;SDS011;10295;49.812;9.866;2022-12-07T10:39:02;16.63;;;7.70;;
20271;SDS011;10295;49.812;9.866;2022-12-07T10:41:30;14.90;;;6.90;;
20271;SDS011;10295;49.812;9.866;2022-12-07T10:43:57;17.13;;;7.53;;
20271;SDS011;10295;49.812;9.866;2022-12-07T10:46:32;16.23;;;7.53;;
20271;SDS011;10295;49.812;9.866;2022-12-07T10:51:53;16.33;;;7.80;;
20271;SDS011;10295;49.812;9.866;2022-12-07T10:57:02;18.73;;;8.20;;
20271;SDS011;10295;49.812;9.866;2022-12-07T11:04:35;16.57;;;8.40;;
20271;SDS011;10295;49.812;9.866;2022-12-07T11:12:58;13.97;;;7.60;;
20271;SDS011;10295;49.812;9.866;2022-12-07T11:18:00;18.40;;;7.60;;
20271;SDS011;10295;49.812;9.866;2022-12-07T11:25:54;15.53;;;7.60;;
20271;SDS011;10295;49.812;9.866;2022-12-07T11:36:47;11.73;;;6.50;;
20271;SDS011;10295;49.812;9.866;2022-12-07T11:41:54;15.83;;;6.67;;
20271;SDS011;10295;49.812;9.866;2022-12-07T11:44:33;15.97;;;7.53;;
20271;SDS011;10295;49.812;9.866;2022-12-07T11:47:21;14.60;;;6.87;;
20271;SDS011;10295;49.812;9.866;2022-12-07T11:52:49;14.80;;;7.10;;
20271;SDS011;10295;49.812;9.866;2022-12-07T11:55:23;14.67;;;6.83;;
20271;SDS011;10295;49.812;9.866;2022-12-07T11:57:58;13.67;;;7.17;;
20271;SDS011;10295;49.812;9.866;2022-12-07T12:00:26;17.57;;;7.47;;
20271;SDS011;10295;49.812;9.866;2022-12-07T12:05:27;14.67;;;7.00;;
20271;SDS011;10295;49.812;9.866;2022-12-07T12:11:13;14.57;;;6.60;;
20271;SDS011;10295;49.812;9.866;2022-12-07T12:13:54;14.30;;;6.77;;
20271;SDS011;10295;49.812;9.866;2022-12-07T12:19:23;12.47;;;5.93;;
20271;SDS011;10295;49.812;9.866;2022-12-07T12:21:56;14.53;;;6.23;;
20271;SDS011;10295;49.812;9.866;2022-12-07T12:24:28;13.50;;;6.67;;
20271;SDS011;10295;49.812;9.866;2022-12-07T12:27:00;14.10;;;6.10;;
20271;SDS011;10295;49.812;9.866;2022-12-07T12:34:33;12.93;;;5.87;;
20271;SDS011;10295;49.812;9.866;2022-12-07T12:42:53;13.63;;;5.87;;
20271;SDS011;10295;49.812;9.866;2022-12-07T12:45:28;15.03;;;6.10;;
20271;SDS011;10295;49.812;9.866;2022-12-07T12:50:24;17.07;;;6.13;;
20271;SDS011;10295;49.812;9.866;2022-12-07T12:53:02;19.00;;;6.37;;
20271;SDS011;10295;49.812;9.866;2022-12-07T13:00:46;14.70;;;6.77;;
20271;SDS011;10295;49.812;9.866;2022-12-07T13:03:21;15.70;;;6.47;;
20271;SDS011;10295;49.812;9.866;2022-12-07T13:05:49;17.27;;;7.47;;
20271;SDS011;10295;49.812;9.866;2022-12-07T13:08:37;18.90;;;7.30;;
20271;SDS011;10295;49.812;9.866;2022-12-07T13:11:17;16.40;;;7.07;;
20271;SDS011;10295;49.812;9.866;2022-12-07T13:13:45;18.97;;;6.37;;
20271;SDS011;10295;49.812;9.866;2022-12-07T13:18:40;16.07;;;5.90;;
20271;SDS011;10295;49.812;9.866;2022-12-07T13:28:44;16.67;;;6.77;;
20271;SDS011;10295;49.812;9.866;2022-12-07T13:33:45;19.83;;;7.10;;
20271;SDS011;10295;49.812;9.866;2022-12-07T13:36:21;16.13;;;7.23;;
20271;SDS011;10295;49.812;9.866;2022-12-07T13:38:52;23.17;;;6.53;;
20271;SDS011;10295;49.812;9.866;2022-12-07T13:41:20;15.93;;;6.77;;
20271;SDS011;10295;49.812;9.866;2022-12-07T13:43:49;18.07;;;6.90;;
20271;SDS011;10295;49.812;9.866;2022-12-07T13:46:18;16.37;;;6.20;;
20271;SDS011;10295;49.812;9.866;2022-12-07T13:48:47;14.67;;;6.10;;
20271;SDS011;10295;49.812;9.866;2022-12-07T13:51:24;15.50;;;6.00;;
20271;SDS011;10295;49.812;9.866;2022-12-07T13:53:53;14.83;;;5.97;;
20271;SDS011;10295;49.812;9.866;2022-12-07T13:56:21;11.90;;;5.87;;
20271;SDS011;10295;49.812;9.866;2022-12-07T13:58:48;13.50;;;5.57;;
20271;SDS011;10295;49.812;9.866;2022-12-07T14:01:15;13.00;;;5.20;;
20271;SDS011;10295;49.812;9.866;2022-12-07T14:03:43;12.70;;;4.70;;
20271;SDS011;10295;49.812;9.866;2022-12-07T14:06:14;11.90;;;4.70;;
20271;SDS011;10295;49.812;9.866;2022-12-07T14:08:42;12.70;;;4.97;;
20271;SDS011;10295;49.812;9.866;2022-12-07T14:11:12;15.30;;;5.00;;
20271;SDS011;10295;49.812;9.866;2022-12-07T14:13:51;11.17;;;4.73;;
20271;SDS011;10295;49.812;9.866;2022-12-07T14:18:57;17.90;;;5.47;;
20271;SDS011;10295;49.812;9.866;2022-12-07T14:21:28;14.30;;;5.00;;
20271;SDS011;10295;49.812;9.866;2022-12-07T14:24:29;15.37;;;5.60;;
20271;SDS011;10295;49.812;9.866;2022-12-07T14:26:49;13.40;;;5.00;;
20271;SDS011;10295;49.812;9.866;2022-12-07T14:31:54;13.40;;;5.13;;
20271;SDS011;10295;49.812;9.866;2022-12-07T14:34:21;16.70;;;4.87;;
20271;SDS011;10295;49.812;9.866;2022-12-07T14:36:49;14.53;;;4.87;;
20271;SDS011;10295;49.812;9.866;2022-12-07T14:39:16;13.83;;;5.43;;
20271;SDS011;10295;49.812;9.866;2022-12-07T14:41:43;15.73;;;5.60;;
20271;SDS011;10295;49.812;9.866;2022-12-07T14:44:17;10.83;;;4.57;;
20271;SDS011;10295;49.812;9.866;2022-12-07T14:46:51;14.27;;;5.20;;
20271;SDS011;10295;49.812;9.866;2022-12-07T14:49:38;15.07;;;5.93;;
20271;SDS011;10295;49.812;9.866;2022-12-07T14:52:05;14.40;;;5.67;;
20271;SDS011;10295;49.812;9.866;2022-12-07T14:54:57;14.67;;;6.47;;
20271;SDS011;10295;49.812;9.866;2022-12-07T14:57:24;14.17;;;6.37;;
20271;SDS011;10295;49.812;9.866;2022-12-07T14:59:51;16.40;;;7.30;;
20271;SDS011;10295;49.812;9.866;2022-12-07T15:02:18;17.23;;;7.47;;
20271;SDS011;10295;49.812;9.866;2022-12-07T15:04:46;17.53;;;7.30;;
20271;SDS011;10295;49.812;9.866;2022-12-07T15:07:20;15.87;;;6.60;;
20271;SDS011;10295;49.812;9.866;2022-12-07T15:09:48;14.67;;;6.70;;
20271;SDS011;10295;49.812;9.866;2022-12-07T15:12:15;13.67;;;6.70;;
20271;SDS011;10295;49.812;9.866;2022-12-07T15:14:42;14.97;;;6.50;;
20271;SDS011;10295;49.812;9.866;2022-12-07T15:17:10;16.33;;;7.10;;
20271;SDS011;10295;49.812;9.866;2022-12-07T15:19:55;15.13;;;6.53;;
20271;SDS011;10295;49.812;9.866;2022-12-07T15:22:22;14.47;;;6.60;;
20271;SDS011;10295;49.812;9.866;2022-12-07T15:24:49;17.30;;;6.57;;
20271;SDS011;10295;49.812;9.866;2022-12-07T15:27:16;14.83;;;6.73;;
20271;SDS011;10295;49.812;9.866;2022-12-07T15:29:43;16.63;;;7.40;;
20271;SDS011;10295;49.812;9.866;2022-12-07T15:32:10;15.73;;;7.70;;
20271;SDS011;10295;49.812;9.866;2022-12-07T15:34:37;16.70;;;7.37;;
20271;SDS011;10295;49.812;9.866;2022-12-07T15:37:06;17.00;;;8.43;;
20271;SDS011;10295;49.812;9.866;2022-12-07T15:39:33;19.67;;;8.77;;
20271;SDS011;10295;49.812;9.866;2022-12-07T15:42:00;17.80;;;8.63;;
20271;SDS011;10295;49.812;9.866;2022-12-07T15:44:28;16.50;;;8.50;;
20271;SDS011;10295;49.812;9.866;2022-12-07T15:47:14;18.37;;;8.37;;
20271;SDS011;10295;49.812;9.866;2022-12-07T15:49:41;18.17;;;8.20;;
20271;SDS011;10295;49.812;9.866;2022-12-07T15:52:08;16.43;;;8.30;;
20271;SDS011;10295;49.812;9.866;2022-12-07T15:54:35;16.50;;;7.67;;
20271;SDS011;10295;49.812;9.866;2022-12-07T15:57:02;13.77;;;7.17;;
20271;SDS011;10295;49.812;9.866;2022-12-07T15:59:29;20.73;;;7.70;;
20271;SDS011;10295;49.812;9.866;2022-12-07T16:01:57;17.13;;;7.77;;
20271;SDS011;10295;49.812;9.866;2022-12-07T16:04:26;19.30;;;7.13;;
20271;SDS011;10295;49.812;9.866;2022-12-07T16:06:53;10.57;;;3.33;;
20271;SDS011;10295;49.812;9.866;2022-12-07T16:09:20;6.50;;;2.50;;
20271;SDS011;10295;49.812;9.866;2022-12-07T16:11:47;7.83;;;2.30;;
20271;SDS011;10295;49.812;9.866;2022-12-07T16:14:16;5.47;;;1.70;;
20271;SDS011;10295;49.812;9.866;2022-12-07T16:16:43;6.37;;;1.70;;
20271;SDS011;10295;49.812;9.866;2022-12-07T16:19:10;5.40;;;1.40;;
20271;SDS011;10295;49.812;9.866;2022-12-07T16:21:37;6.27;;;1.50;;
20271;SDS011;10295;49.812;9.866;2022-12-07T16:24:05;8.30;;;1.70;;
20271;SDS011;10295;49.812;9.866;2022-12-07T16:26:32;6.80;;;1.87;;
20271;SDS011;10295;49.812;9.866;2022-12-07T16:29:00;8.50;;;2.40;;
20271;SDS011;10295;49.812;9.866;2022-12-07T16:31:27;6.50;;;2.70;;
20271;SDS011;10295;49.812;9.866;2022-12-07T16:33:55;9.43;;;2.90;;
20271;SDS011;10295;49.812;9.866;2022-12-07T16:36:23;9.40;;;3.00;;
20271;SDS011;10295;49.812;9.866;2022-12-07T16:39:12;7.67;;;2.73;;
20271;SDS011;10295;49.812;9.866;2022-12-07T16:41:39;9.33;;;2.60;;
20271;SDS011;10295;49.812;9.866;2022-12-07T16:44:07;9.23;;;2.40;;